Aviation Digital Data Service (ADDS)

Output produced by METARs form (2350 UTC 24 February 2018)
found at http://aviationweather.gov/adds/metars/
 
KDEN 242339Z 2500/2606 30014G24KT P6SM FEW100 SCT200 
     FM250100 29011KT P6SM FEW100 SCT200 
     FM250300 25008KT P6SM SCT200 
     FM250600 21009KT P6SM SCT200 
     FM251700 26013KT P6SM FEW120 SCT200 
     FM251900 28015G26KT P6SM SCT100 BKN200 
     FM252300 25010KT P6SM FEW120 BKN200 
     FM260100 22008KT P6SM FEW120 SCT200